sensor_id;sensor_type;location;lat;lon;timestamp;temperature;humidity
15483;DHT22;7843;50.330;7.312;2023-12-20T00:02:04;5.10;99.90
15483;DHT22;7843;50.330;7.312;2023-12-20T00:04:31;5.10;99.90
15483;DHT22;7843;50.330;7.312;2023-12-20T00:06:58;5.10;99.90
15483;DHT22;7843;50.330;7.312;2023-12-20T00:09:24;5.10;99.90
15483;DHT22;7843;50.330;7.312;2023-12-20T00:11:51;5.10;99.90
15483;DHT22;7843;50.330;7.312;2023-12-20T00:14:18;5.10;99.90
15483;DHT22;7843;50.330;7.312;2023-12-20T00:16:44;5.10;99.90
15483;DHT22;7843;50.330;7.312;2023-12-20T00:19:11;5.10;99.90
15483;DHT22;7843;50.330;7.312;2023-12-20T00:21:38;5.10;99.90
15483;DHT22;7843;50.330;7.312;2023-12-20T00:24:05;5.20;99.90
15483;DHT22;7843;50.330;7.312;2023-12-20T00:26:31;5.20;99.90
15483;DHT22;7843;50.330;7.312;2023-12-20T00:28:58;5.20;99.90
15483;DHT22;7843;50.330;7.312;2023-12-20T00:31:25;5.20;99.90
15483;DHT22;7843;50.330;7.312;2023-12-20T00:33:51;5.20;99.90
15483;DHT22;7843;50.330;7.312;2023-12-20T00:36:18;5.10;99.90
15483;DHT22;7843;50.330;7.312;2023-12-20T00:38:45;5.20;99.90
15483;DHT22;7843;50.330;7.312;2023-12-20T00:41:11;5.20;99.90
15483;DHT22;7843;50.330;7.312;2023-12-20T00:43:38;5.20;99.90
15483;DHT22;7843;50.330;7.312;2023-12-20T00:46:05;5.20;99.90
15483;DHT22;7843;50.330;7.312;2023-12-20T00:48:32;5.10;99.90
15483;DHT22;7843;50.330;7.312;2023-12-20T00:50:59;5.20;99.90
15483;DHT22;7843;50.330;7.312;2023-12-20T00:53:26;5.20;99.90
15483;DHT22;7843;50.330;7.312;2023-12-20T00:55:53;5.10;99.90
15483;DHT22;7843;50.330;7.312;2023-12-20T00:58:19;5.10;99.90
15483;DHT22;7843;50.330;7.312;2023-12-20T01:00:46;5.10;99.90
15483;DHT22;7843;50.330;7.312;2023-12-20T01:03:13;5.10;99.90
15483;DHT22;7843;50.330;7.312;2023-12-20T01:05:40;5.10;99.90
15483;DHT22;7843;50.330;7.312;2023-12-20T01:08:07;5.20;99.90
15483;DHT22;7843;50.330;7.312;2023-12-20T01:10:34;5.20;99.90
15483;DHT22;7843;50.330;7.312;2023-12-20T01:13:00;5.20;99.90
15483;DHT22;7843;50.330;7.312;2023-12-20T01:15:27;5.30;99.90
15483;DHT22;7843;50.330;7.312;2023-12-20T01:17:54;5.30;99.90
15483;DHT22;7843;50.330;7.312;2023-12-20T01:20:23;5.30;99.90
15483;DHT22;7843;50.330;7.312;2023-12-20T01:22:50;5.30;99.90
15483;DHT22;7843;50.330;7.312;2023-12-20T01:25:16;5.30;99.90
15483;DHT22;7843;50.330;7.312;2023-12-20T01:27:43;5.40;99.90
15483;DHT22;7843;50.330;7.312;2023-12-20T01:30:10;5.40;99.90
15483;DHT22;7843;50.330;7.312;2023-12-20T01:32:37;5.30;99.90
15483;DHT22;7843;50.330;7.312;2023-12-20T01:35:04;5.40;99.90
15483;DHT22;7843;50.330;7.312;2023-12-20T01:37:31;5.40;99.90
15483;DHT22;7843;50.330;7.312;2023-12-20T01:39:57;5.40;99.90
15483;DHT22;7843;50.330;7.312;2023-12-20T01:42:25;5.40;99.90
15483;DHT22;7843;50.330;7.312;2023-12-20T01:44:51;5.40;99.90
15483;DHT22;7843;50.330;7.312;2023-12-20T01:47:18;5.30;99.90
15483;DHT22;7843;50.330;7.312;2023-12-20T01:49:45;5.30;99.90
15483;DHT22;7843;50.330;7.312;2023-12-20T01:52:12;5.40;99.90
15483;DHT22;7843;50.330;7.312;2023-12-20T01:54:40;5.30;99.90
15483;DHT22;7843;50.330;7.312;2023-12-20T01:57:08;5.40;99.90
15483;DHT22;7843;50.330;7.312;2023-12-20T01:59:35;5.40;99.90
15483;DHT22;7843;50.330;7.312;2023-12-20T02:02:03;5.40;99.90
15483;DHT22;7843;50.330;7.312;2023-12-20T02:04:30;5.40;99.90
15483;DHT22;7843;50.330;7.312;2023-12-20T02:06:57;5.40;99.90
15483;DHT22;7843;50.330;7.312;2023-12-20T02:09:25;5.40;99.90
15483;DHT22;7843;50.330;7.312;2023-12-20T02:11:53;5.40;99.90
15483;DHT22;7843;50.330;7.312;2023-12-20T02:14:20;5.40;99.90
15483;DHT22;7843;50.330;7.312;2023-12-20T02:16:47;5.40;99.90
15483;DHT22;7843;50.330;7.312;2023-12-20T02:19:14;5.40;99.90
15483;DHT22;7843;50.330;7.312;2023-12-20T02:21:42;5.40;99.90
15483;DHT22;7843;50.330;7.312;2023-12-20T02:24:08;5.40;99.90
15483;DHT22;7843;50.330;7.312;2023-12-20T02:26:35;5.50;99.90
15483;DHT22;7843;50.330;7.312;2023-12-20T02:29:02;5.50;99.90
15483;DHT22;7843;50.330;7.312;2023-12-20T02:31:29;5.50;99.90
15483;DHT22;7843;50.330;7.312;2023-12-20T02:33:55;5.50;99.90
15483;DHT22;7843;50.330;7.312;2023-12-20T02:36:22;5.50;99.90
15483;DHT22;7843;50.330;7.312;2023-12-20T02:38:49;5.50;99.90
15483;DHT22;7843;50.330;7.312;2023-12-20T02:41:17;5.50;99.90
15483;DHT22;7843;50.330;7.312;2023-12-20T02:43:45;5.50;99.90
15483;DHT22;7843;50.330;7.312;2023-12-20T02:46:12;5.40;99.90
15483;DHT22;7843;50.330;7.312;2023-12-20T02:48:40;5.40;99.90
15483;DHT22;7843;50.330;7.312;2023-12-20T02:51:06;5.40;99.90
15483;DHT22;7843;50.330;7.312;2023-12-20T02:53:33;5.40;99.90
15483;DHT22;7843;50.330;7.312;2023-12-20T02:56:00;5.30;99.90
15483;DHT22;7843;50.330;7.312;2023-12-20T02:58:26;5.30;99.90
15483;DHT22;7843;50.330;7.312;2023-12-20T03:00:53;5.40;99.90
15483;DHT22;7843;50.330;7.312;2023-12-20T03:03:20;5.30;99.90
15483;DHT22;7843;50.330;7.312;2023-12-20T03:05:47;5.30;99.90
15483;DHT22;7843;50.330;7.312;2023-12-20T03:08:14;5.30;99.90
15483;DHT22;7843;50.330;7.312;2023-12-20T03:10:40;5.30;99.90
15483;DHT22;7843;50.330;7.312;2023-12-20T03:13:07;5.30;99.90
15483;DHT22;7843;50.330;7.312;2023-12-20T03:15:34;5.20;99.90
15483;DHT22;7843;50.330;7.312;2023-12-20T03:18:01;5.20;99.90
15483;DHT22;7843;50.330;7.312;2023-12-20T03:20:28;5.10;99.90
15483;DHT22;7843;50.330;7.312;2023-12-20T03:22:54;5.00;99.90
15483;DHT22;7843;50.330;7.312;2023-12-20T03:25:21;4.90;99.90
15483;DHT22;7843;50.330;7.312;2023-12-20T03:27:48;4.80;99.90
15483;DHT22;7843;50.330;7.312;2023-12-20T03:30:15;4.70;99.90
15483;DHT22;7843;50.330;7.312;2023-12-20T03:32:41;4.70;99.90
15483;DHT22;7843;50.330;7.312;2023-12-20T03:35:08;4.60;99.90
15483;DHT22;7843;50.330;7.312;2023-12-20T03:37:35;4.50;99.90
15483;DHT22;7843;50.330;7.312;2023-12-20T03:40:02;4.40;99.90
15483;DHT22;7843;50.330;7.312;2023-12-20T03:42:29;4.50;99.90
15483;DHT22;7843;50.330;7.312;2023-12-20T03:44:56;4.40;99.90
15483;DHT22;7843;50.330;7.312;2023-12-20T03:47:22;4.40;99.90
15483;DHT22;7843;50.330;7.312;2023-12-20T03:49:49;4.40;99.90
15483;DHT22;7843;50.330;7.312;2023-12-20T03:52:16;4.30;99.90
15483;DHT22;7843;50.330;7.312;2023-12-20T03:54:42;4.30;99.90
15483;DHT22;7843;50.330;7.312;2023-12-20T03:57:09;4.20;99.90
15483;DHT22;7843;50.330;7.312;2023-12-20T03:59:36;4.10;99.90
15483;DHT22;7843;50.330;7.312;2023-12-20T04:02:04;3.90;99.90
15483;DHT22;7843;50.330;7.312;2023-12-20T04:04:30;3.90;99.90
15483;DHT22;7843;50.330;7.312;2023-12-20T04:06:57;3.70;99.90
15483;DHT22;7843;50.330;7.312;2023-12-20T04:09:24;3.60;99.90
15483;DHT22;7843;50.330;7.312;2023-12-20T04:11:51;3.50;99.90
15483;DHT22;7843;50.330;7.312;2023-12-20T04:14:17;3.50;99.90
15483;DHT22;7843;50.330;7.312;2023-12-20T04:16:44;3.50;99.90
15483;DHT22;7843;50.330;7.312;2023-12-20T04:19:12;3.60;99.90
15483;DHT22;7843;50.330;7.312;2023-12-20T04:21:39;3.60;99.90
15483;DHT22;7843;50.330;7.312;2023-12-20T04:24:05;3.60;99.90
15483;DHT22;7843;50.330;7.312;2023-12-20T04:26:32;3.60;99.90
15483;DHT22;7843;50.330;7.312;2023-12-20T04:28:59;3.60;99.90
15483;DHT22;7843;50.330;7.312;2023-12-20T04:31:25;3.70;99.90
15483;DHT22;7843;50.330;7.312;2023-12-20T04:33:52;3.70;99.90
15483;DHT22;7843;50.330;7.312;2023-12-20T04:36:19;3.70;99.90
15483;DHT22;7843;50.330;7.312;2023-12-20T04:38:46;3.70;99.90
15483;DHT22;7843;50.330;7.312;2023-12-20T04:41:12;3.80;99.90
15483;DHT22;7843;50.330;7.312;2023-12-20T04:43:42;3.80;99.90
15483;DHT22;7843;50.330;7.312;2023-12-20T04:46:09;3.80;99.90
15483;DHT22;7843;50.330;7.312;2023-12-20T04:48:36;3.80;99.90
15483;DHT22;7843;50.330;7.312;2023-12-20T04:51:03;3.80;99.90
15483;DHT22;7843;50.330;7.312;2023-12-20T04:53:29;3.80;99.90
15483;DHT22;7843;50.330;7.312;2023-12-20T04:55:56;3.80;99.90
15483;DHT22;7843;50.330;7.312;2023-12-20T04:58:23;3.80;99.90
15483;DHT22;7843;50.330;7.312;2023-12-20T05:00:50;3.90;99.90
15483;DHT22;7843;50.330;7.312;2023-12-20T05:03:17;3.90;99.90
15483;DHT22;7843;50.330;7.312;2023-12-20T05:05:43;3.80;99.90
15483;DHT22;7843;50.330;7.312;2023-12-20T05:08:10;3.90;99.90
15483;DHT22;7843;50.330;7.312;2023-12-20T05:10:37;3.90;99.90
15483;DHT22;7843;50.330;7.312;2023-12-20T05:13:03;3.90;99.90
15483;DHT22;7843;50.330;7.312;2023-12-20T05:15:30;3.90;99.90
15483;DHT22;7843;50.330;7.312;2023-12-20T05:17:57;3.90;99.90
15483;DHT22;7843;50.330;7.312;2023-12-20T05:20:24;3.90;99.90
15483;DHT22;7843;50.330;7.312;2023-12-20T05:22:50;4.00;99.90
15483;DHT22;7843;50.330;7.312;2023-12-20T05:25:17;4.00;99.90
15483;DHT22;7843;50.330;7.312;2023-12-20T05:27:44;4.00;99.90
15483;DHT22;7843;50.330;7.312;2023-12-20T05:30:11;4.00;99.90
15483;DHT22;7843;50.330;7.312;2023-12-20T05:32:38;4.00;99.90
15483;DHT22;7843;50.330;7.312;2023-12-20T05:35:05;4.00;99.90
15483;DHT22;7843;50.330;7.312;2023-12-20T05:37:31;4.00;99.90
15483;DHT22;7843;50.330;7.312;2023-12-20T05:39:59;4.00;99.90
15483;DHT22;7843;50.330;7.312;2023-12-20T05:42:25;3.90;99.90
15483;DHT22;7843;50.330;7.312;2023-12-20T05:44:52;3.90;99.90
15483;DHT22;7843;50.330;7.312;2023-12-20T05:47:19;3.90;99.90
15483;DHT22;7843;50.330;7.312;2023-12-20T05:49:46;3.90;99.90
15483;DHT22;7843;50.330;7.312;2023-12-20T05:52:13;3.90;99.90
15483;DHT22;7843;50.330;7.312;2023-12-20T05:54:39;3.90;99.90
15483;DHT22;7843;50.330;7.312;2023-12-20T05:57:06;3.90;99.90
15483;DHT22;7843;50.330;7.312;2023-12-20T05:59:33;3.90;99.90
15483;DHT22;7843;50.330;7.312;2023-12-20T06:01:59;3.80;99.90
15483;DHT22;7843;50.330;7.312;2023-12-20T06:04:26;3.80;99.90
15483;DHT22;7843;50.330;7.312;2023-12-20T06:06:53;3.60;99.90
15483;DHT22;7843;50.330;7.312;2023-12-20T06:09:20;3.50;99.90
15483;DHT22;7843;50.330;7.312;2023-12-20T06:11:46;3.50;99.90
15483;DHT22;7843;50.330;7.312;2023-12-20T06:14:13;3.50;99.90
15483;DHT22;7843;50.330;7.312;2023-12-20T06:16:40;3.50;99.90
15483;DHT22;7843;50.330;7.312;2023-12-20T06:19:06;3.50;99.90
15483;DHT22;7843;50.330;7.312;2023-12-20T06:21:33;3.50;99.90
15483;DHT22;7843;50.330;7.312;2023-12-20T06:24:00;3.50;99.90
15483;DHT22;7843;50.330;7.312;2023-12-20T06:26:26;3.40;99.90
15483;DHT22;7843;50.330;7.312;2023-12-20T06:28:53;3.30;99.90
15483;DHT22;7843;50.330;7.312;2023-12-20T06:31:20;3.20;99.90
15483;DHT22;7843;50.330;7.312;2023-12-20T06:33:46;3.10;99.90
15483;DHT22;7843;50.330;7.312;2023-12-20T06:36:13;3.00;99.90
15483;DHT22;7843;50.330;7.312;2023-12-20T06:38:40;3.00;99.90
15483;DHT22;7843;50.330;7.312;2023-12-20T06:41:08;2.90;99.90
15483;DHT22;7843;50.330;7.312;2023-12-20T06:43:35;2.90;99.90
15483;DHT22;7843;50.330;7.312;2023-12-20T06:46:03;2.80;99.90
15483;DHT22;7843;50.330;7.312;2023-12-20T06:48:29;2.70;99.90
15483;DHT22;7843;50.330;7.312;2023-12-20T06:50:56;2.70;99.90
15483;DHT22;7843;50.330;7.312;2023-12-20T06:53:23;2.70;99.90
15483;DHT22;7843;50.330;7.312;2023-12-20T06:55:49;2.70;99.90
15483;DHT22;7843;50.330;7.312;2023-12-20T06:58:16;2.70;99.90
15483;DHT22;7843;50.330;7.312;2023-12-20T07:00:43;2.80;99.90
15483;DHT22;7843;50.330;7.312;2023-12-20T07:03:10;2.80;99.90
15483;DHT22;7843;50.330;7.312;2023-12-20T07:05:36;2.90;99.90
15483;DHT22;7843;50.330;7.312;2023-12-20T07:08:03;2.90;99.90
15483;DHT22;7843;50.330;7.312;2023-12-20T07:10:30;3.00;99.90
15483;DHT22;7843;50.330;7.312;2023-12-20T07:12:57;3.00;99.90
15483;DHT22;7843;50.330;7.312;2023-12-20T07:15:24;3.10;99.90
15483;DHT22;7843;50.330;7.312;2023-12-20T07:17:51;3.10;99.90
15483;DHT22;7843;50.330;7.312;2023-12-20T07:20:17;3.20;99.90
15483;DHT22;7843;50.330;7.312;2023-12-20T07:22:44;3.20;99.90
15483;DHT22;7843;50.330;7.312;2023-12-20T07:25:11;3.30;99.90
15483;DHT22;7843;50.330;7.312;2023-12-20T07:27:37;3.30;99.90
15483;DHT22;7843;50.330;7.312;2023-12-20T07:30:05;3.40;99.90
15483;DHT22;7843;50.330;7.312;2023-12-20T07:32:32;3.40;99.90
15483;DHT22;7843;50.330;7.312;2023-12-20T07:34:59;3.40;99.90
15483;DHT22;7843;50.330;7.312;2023-12-20T07:37:26;3.50;99.90
15483;DHT22;7843;50.330;7.312;2023-12-20T07:39:52;3.50;99.90
15483;DHT22;7843;50.330;7.312;2023-12-20T07:42:19;3.50;99.90
15483;DHT22;7843;50.330;7.312;2023-12-20T07:44:46;3.50;99.90
15483;DHT22;7843;50.330;7.312;2023-12-20T07:47:12;3.50;99.90
15483;DHT22;7843;50.330;7.312;2023-12-20T07:49:42;3.60;99.90
15483;DHT22;7843;50.330;7.312;2023-12-20T07:52:08;3.60;99.90
15483;DHT22;7843;50.330;7.312;2023-12-20T07:54:35;3.60;99.90
15483;DHT22;7843;50.330;7.312;2023-12-20T07:57:02;3.70;99.90
15483;DHT22;7843;50.330;7.312;2023-12-20T07:59:29;3.70;99.90
15483;DHT22;7843;50.330;7.312;2023-12-20T08:01:58;3.70;99.90
15483;DHT22;7843;50.330;7.312;2023-12-20T08:04:25;3.70;99.90
15483;DHT22;7843;50.330;7.312;2023-12-20T08:06:51;3.70;99.90
15483;DHT22;7843;50.330;7.312;2023-12-20T08:09:18;3.70;99.90
15483;DHT22;7843;50.330;7.312;2023-12-20T08:11:46;3.80;99.90
15483;DHT22;7843;50.330;7.312;2023-12-20T08:14:13;3.80;99.90
15483;DHT22;7843;50.330;7.312;2023-12-20T08:16:43;3.80;99.90
15483;DHT22;7843;50.330;7.312;2023-12-20T08:19:10;3.90;99.90
15483;DHT22;7843;50.330;7.312;2023-12-20T08:21:37;3.90;99.90
15483;DHT22;7843;50.330;7.312;2023-12-20T08:24:04;4.00;99.90
15483;DHT22;7843;50.330;7.312;2023-12-20T08:26:30;4.00;99.90
15483;DHT22;7843;50.330;7.312;2023-12-20T08:28:57;4.10;99.90
15483;DHT22;7843;50.330;7.312;2023-12-20T08:31:25;4.10;99.90
15483;DHT22;7843;50.330;7.312;2023-12-20T08:33:52;4.10;99.90
15483;DHT22;7843;50.330;7.312;2023-12-20T08:36:20;4.20;99.90
15483;DHT22;7843;50.330;7.312;2023-12-20T08:38:49;4.30;99.90
15483;DHT22;7843;50.330;7.312;2023-12-20T08:41:17;4.30;99.90
15483;DHT22;7843;50.330;7.312;2023-12-20T08:43:49;4.30;99.90
15483;DHT22;7843;50.330;7.312;2023-12-20T08:46:15;4.40;99.90
15483;DHT22;7843;50.330;7.312;2023-12-20T08:48:42;4.50;99.90
15483;DHT22;7843;50.330;7.312;2023-12-20T08:51:10;4.60;99.90
15483;DHT22;7843;50.330;7.312;2023-12-20T08:53:37;4.60;99.90
15483;DHT22;7843;50.330;7.312;2023-12-20T08:56:04;4.70;99.90
15483;DHT22;7843;50.330;7.312;2023-12-20T08:58:31;4.80;99.90
15483;DHT22;7843;50.330;7.312;2023-12-20T09:00:58;4.90;99.90
15483;DHT22;7843;50.330;7.312;2023-12-20T09:03:24;4.90;99.90
15483;DHT22;7843;50.330;7.312;2023-12-20T09:05:51;5.00;99.90
15483;DHT22;7843;50.330;7.312;2023-12-20T09:08:18;5.10;99.90
15483;DHT22;7843;50.330;7.312;2023-12-20T09:10:45;5.10;99.90
15483;DHT22;7843;50.330;7.312;2023-12-20T09:13:11;5.20;99.90
15483;DHT22;7843;50.330;7.312;2023-12-20T09:15:38;5.20;99.90
15483;DHT22;7843;50.330;7.312;2023-12-20T09:18:05;5.30;99.90
15483;DHT22;7843;50.330;7.312;2023-12-20T09:20:32;5.40;99.90
15483;DHT22;7843;50.330;7.312;2023-12-20T09:22:59;5.40;99.90
15483;DHT22;7843;50.330;7.312;2023-12-20T09:25:26;5.50;99.90
15483;DHT22;7843;50.330;7.312;2023-12-20T09:27:53;5.60;99.90
15483;DHT22;7843;50.330;7.312;2023-12-20T09:30:19;5.80;99.90
15483;DHT22;7843;50.330;7.312;2023-12-20T09:32:46;5.90;99.90
15483;DHT22;7843;50.330;7.312;2023-12-20T09:35:13;6.00;99.90
15483;DHT22;7843;50.330;7.312;2023-12-20T09:37:41;6.10;99.90
15483;DHT22;7843;50.330;7.312;2023-12-20T09:40:13;6.20;99.90
15483;DHT22;7843;50.330;7.312;2023-12-20T09:42:58;6.40;99.90
15483;DHT22;7843;50.330;7.312;2023-12-20T09:45:25;6.40;99.90
15483;DHT22;7843;50.330;7.312;2023-12-20T09:47:53;6.40;99.90
15483;DHT22;7843;50.330;7.312;2023-12-20T09:50:21;6.40;99.90
15483;DHT22;7843;50.330;7.312;2023-12-20T09:52:52;6.50;99.90
15483;DHT22;7843;50.330;7.312;2023-12-20T09:55:20;6.40;99.90
15483;DHT22;7843;50.330;7.312;2023-12-20T09:57:47;6.50;99.90
15483;DHT22;7843;50.330;7.312;2023-12-20T10:00:15;6.40;99.90
15483;DHT22;7843;50.330;7.312;2023-12-20T10:02:50;6.40;99.90
15483;DHT22;7843;50.330;7.312;2023-12-20T10:05:17;6.40;99.90
15483;DHT22;7843;50.330;7.312;2023-12-20T10:07:47;6.40;99.90
15483;DHT22;7843;50.330;7.312;2023-12-20T10:10:14;6.30;99.90
15483;DHT22;7843;50.330;7.312;2023-12-20T10:13:10;6.40;99.90
15483;DHT22;7843;50.330;7.312;2023-12-20T10:15:37;6.60;99.90
15483;DHT22;7843;50.330;7.312;2023-12-20T10:18:05;6.90;99.90
15483;DHT22;7843;50.330;7.312;2023-12-20T10:20:32;7.00;99.90
15483;DHT22;7843;50.330;7.312;2023-12-20T10:23:00;7.20;99.90
15483;DHT22;7843;50.330;7.312;2023-12-20T10:25:27;7.30;99.90
15483;DHT22;7843;50.330;7.312;2023-12-20T10:28:14;7.30;99.90
15483;DHT22;7843;50.330;7.312;2023-12-20T10:30:43;7.20;99.90
15483;DHT22;7843;50.330;7.312;2023-12-20T10:33:10;7.20;99.90
15483;DHT22;7843;50.330;7.312;2023-12-20T10:35:38;7.10;99.90
15483;DHT22;7843;50.330;7.312;2023-12-20T10:38:06;7.00;99.90
15483;DHT22;7843;50.330;7.312;2023-12-20T10:40:35;6.90;99.90
15483;DHT22;7843;50.330;7.312;2023-12-20T10:43:03;6.80;99.90
15483;DHT22;7843;50.330;7.312;2023-12-20T10:45:30;6.60;99.90
15483;DHT22;7843;50.330;7.312;2023-12-20T10:47:58;6.60;99.90
15483;DHT22;7843;50.330;7.312;2023-12-20T10:50:27;6.60;99.90
15483;DHT22;7843;50.330;7.312;2023-12-20T10:52:55;6.60;99.90
15483;DHT22;7843;50.330;7.312;2023-12-20T10:55:23;6.50;99.90
15483;DHT22;7843;50.330;7.312;2023-12-20T10:57:51;6.50;99.90
15483;DHT22;7843;50.330;7.312;2023-12-20T11:00:18;6.60;99.90
15483;DHT22;7843;50.330;7.312;2023-12-20T11:02:46;6.60;99.90
15483;DHT22;7843;50.330;7.312;2023-12-20T11:08:14;6.70;99.90
15483;DHT22;7843;50.330;7.312;2023-12-20T11:11:00;6.70;99.90
15483;DHT22;7843;50.330;7.312;2023-12-20T11:13:37;6.60;99.90
15483;DHT22;7843;50.330;7.312;2023-12-20T11:16:04;6.60;99.90
15483;DHT22;7843;50.330;7.312;2023-12-20T11:18:32;6.60;99.90
15483;DHT22;7843;50.330;7.312;2023-12-20T11:21:04;6.60;99.90
15483;DHT22;7843;50.330;7.312;2023-12-20T11:23:32;6.60;99.90
15483;DHT22;7843;50.330;7.312;2023-12-20T11:26:01;6.60;99.90
15483;DHT22;7843;50.330;7.312;2023-12-20T11:28:28;6.60;99.90
15483;DHT22;7843;50.330;7.312;2023-12-20T11:31:00;6.60;99.90
15483;DHT22;7843;50.330;7.312;2023-12-20T11:33:37;6.70;99.90
15483;DHT22;7843;50.330;7.312;2023-12-20T11:36:13;6.90;99.90
15483;DHT22;7843;50.330;7.312;2023-12-20T11:38:56;7.00;99.90
15483;DHT22;7843;50.330;7.312;2023-12-20T11:41:24;7.20;99.90
15483;DHT22;7843;50.330;7.312;2023-12-20T11:43:53;7.20;99.90
15483;DHT22;7843;50.330;7.312;2023-12-20T11:46:20;7.20;99.90
15483;DHT22;7843;50.330;7.312;2023-12-20T11:48:48;7.20;99.90
15483;DHT22;7843;50.330;7.312;2023-12-20T11:51:15;7.20;99.90
15483;DHT22;7843;50.330;7.312;2023-12-20T11:53:42;7.10;99.90
15483;DHT22;7843;50.330;7.312;2023-12-20T11:56:09;7.10;99.90
15483;DHT22;7843;50.330;7.312;2023-12-20T11:58:36;7.20;99.90
15483;DHT22;7843;50.330;7.312;2023-12-20T12:01:04;7.20;99.90
15483;DHT22;7843;50.330;7.312;2023-12-20T12:03:31;7.20;99.90
15483;DHT22;7843;50.330;7.312;2023-12-20T12:05:58;7.30;99.90
15483;DHT22;7843;50.330;7.312;2023-12-20T12:08:24;7.40;99.90
15483;DHT22;7843;50.330;7.312;2023-12-20T12:10:51;7.40;99.90
15483;DHT22;7843;50.330;7.312;2023-12-20T12:13:18;7.50;99.90
15483;DHT22;7843;50.330;7.312;2023-12-20T12:15:45;7.60;99.90
15483;DHT22;7843;50.330;7.312;2023-12-20T12:18:16;7.80;99.90
15483;DHT22;7843;50.330;7.312;2023-12-20T12:20:42;7.80;99.90
15483;DHT22;7843;50.330;7.312;2023-12-20T12:23:09;7.80;99.90
15483;DHT22;7843;50.330;7.312;2023-12-20T12:25:36;7.80;99.90
15483;DHT22;7843;50.330;7.312;2023-12-20T12:28:06;7.90;99.90
15483;DHT22;7843;50.330;7.312;2023-12-20T12:30:33;8.00;99.90
15483;DHT22;7843;50.330;7.312;2023-12-20T12:33:00;8.10;99.90
15483;DHT22;7843;50.330;7.312;2023-12-20T12:35:27;8.10;99.90
15483;DHT22;7843;50.330;7.312;2023-12-20T12:37:54;8.00;99.90
15483;DHT22;7843;50.330;7.312;2023-12-20T12:40:21;8.00;99.90
15483;DHT22;7843;50.330;7.312;2023-12-20T12:42:48;8.00;99.90
15483;DHT22;7843;50.330;7.312;2023-12-20T12:45:15;7.90;99.90
15483;DHT22;7843;50.330;7.312;2023-12-20T12:47:42;7.80;99.90
15483;DHT22;7843;50.330;7.312;2023-12-20T12:50:09;7.80;99.90
15483;DHT22;7843;50.330;7.312;2023-12-20T12:52:36;7.80;99.90
15483;DHT22;7843;50.330;7.312;2023-12-20T12:55:03;7.70;99.90
15483;DHT22;7843;50.330;7.312;2023-12-20T12:57:31;7.80;99.90
15483;DHT22;7843;50.330;7.312;2023-12-20T12:59:58;7.70;99.90
15483;DHT22;7843;50.330;7.312;2023-12-20T13:02:25;7.60;99.90
15483;DHT22;7843;50.330;7.312;2023-12-20T13:04:52;7.60;99.90
15483;DHT22;7843;50.330;7.312;2023-12-20T13:07:18;7.60;99.90
15483;DHT22;7843;50.330;7.312;2023-12-20T13:09:45;7.60;99.90
15483;DHT22;7843;50.330;7.312;2023-12-20T13:12:12;7.60;99.90
15483;DHT22;7843;50.330;7.312;2023-12-20T13:14:39;7.70;99.90
15483;DHT22;7843;50.330;7.312;2023-12-20T13:17:06;7.90;99.90
15483;DHT22;7843;50.330;7.312;2023-12-20T13:19:33;8.00;99.90
15483;DHT22;7843;50.330;7.312;2023-12-20T13:22:00;8.00;99.90
15483;DHT22;7843;50.330;7.312;2023-12-20T13:24:27;7.90;99.90
15483;DHT22;7843;50.330;7.312;2023-12-20T13:26:53;7.80;99.90
15483;DHT22;7843;50.330;7.312;2023-12-20T13:29:20;7.60;99.90
15483;DHT22;7843;50.330;7.312;2023-12-20T13:31:47;7.60;99.90
15483;DHT22;7843;50.330;7.312;2023-12-20T13:34:13;7.50;99.90
15483;DHT22;7843;50.330;7.312;2023-12-20T13:36:40;7.50;99.90
15483;DHT22;7843;50.330;7.312;2023-12-20T13:39:07;7.40;99.90
15483;DHT22;7843;50.330;7.312;2023-12-20T13:41:34;7.30;99.90
15483;DHT22;7843;50.330;7.312;2023-12-20T13:44:01;7.20;99.90
15483;DHT22;7843;50.330;7.312;2023-12-20T13:46:29;7.30;99.90
15483;DHT22;7843;50.330;7.312;2023-12-20T13:48:56;7.30;99.90
15483;DHT22;7843;50.330;7.312;2023-12-20T13:51:23;7.40;99.90
15483;DHT22;7843;50.330;7.312;2023-12-20T13:53:50;7.40;99.90
15483;DHT22;7843;50.330;7.312;2023-12-20T13:56:16;7.50;99.90
15483;DHT22;7843;50.330;7.312;2023-12-20T13:58:43;7.50;99.90
15483;DHT22;7843;50.330;7.312;2023-12-20T14:01:10;7.40;99.90
15483;DHT22;7843;50.330;7.312;2023-12-20T14:03:38;7.50;99.90
15483;DHT22;7843;50.330;7.312;2023-12-20T14:06:05;7.40;99.90
15483;DHT22;7843;50.330;7.312;2023-12-20T14:08:31;7.30;99.90
15483;DHT22;7843;50.330;7.312;2023-12-20T14:10:58;7.30;99.90
15483;DHT22;7843;50.330;7.312;2023-12-20T14:13:25;7.20;99.90
15483;DHT22;7843;50.330;7.312;2023-12-20T14:15:51;7.10;99.90
15483;DHT22;7843;50.330;7.312;2023-12-20T14:18:20;7.10;99.90
15483;DHT22;7843;50.330;7.312;2023-12-20T14:20:48;7.10;99.90
15483;DHT22;7843;50.330;7.312;2023-12-20T14:23:14;7.00;99.90
15483;DHT22;7843;50.330;7.312;2023-12-20T14:25:41;6.90;99.90
15483;DHT22;7843;50.330;7.312;2023-12-20T14:28:11;6.80;99.90
15483;DHT22;7843;50.330;7.312;2023-12-20T14:30:40;6.80;99.90
15483;DHT22;7843;50.330;7.312;2023-12-20T14:33:07;6.80;99.90
15483;DHT22;7843;50.330;7.312;2023-12-20T14:35:34;6.70;99.90
15483;DHT22;7843;50.330;7.312;2023-12-20T14:38:01;6.70;99.90
15483;DHT22;7843;50.330;7.312;2023-12-20T14:40:27;6.70;99.90
15483;DHT22;7843;50.330;7.312;2023-12-20T14:42:54;6.60;99.90
15483;DHT22;7843;50.330;7.312;2023-12-20T14:45:21;6.60;99.90
15483;DHT22;7843;50.330;7.312;2023-12-20T14:47:47;6.60;99.90
15483;DHT22;7843;50.330;7.312;2023-12-20T14:50:15;6.60;99.90
15483;DHT22;7843;50.330;7.312;2023-12-20T14:52:45;6.60;99.90
15483;DHT22;7843;50.330;7.312;2023-12-20T14:55:12;6.60;99.90
15483;DHT22;7843;50.330;7.312;2023-12-20T14:57:39;6.60;99.90
15483;DHT22;7843;50.330;7.312;2023-12-20T15:00:07;6.60;99.90
15483;DHT22;7843;50.330;7.312;2023-12-20T15:02:34;6.60;99.90
15483;DHT22;7843;50.330;7.312;2023-12-20T15:05:01;6.60;99.90
15483;DHT22;7843;50.330;7.312;2023-12-20T15:07:28;6.60;99.90
15483;DHT22;7843;50.330;7.312;2023-12-20T15:09:55;6.60;99.90
15483;DHT22;7843;50.330;7.312;2023-12-20T15:12:21;6.50;99.90
15483;DHT22;7843;50.330;7.312;2023-12-20T15:14:49;6.50;99.90
15483;DHT22;7843;50.330;7.312;2023-12-20T15:17:16;6.40;99.90
15483;DHT22;7843;50.330;7.312;2023-12-20T15:19:42;6.40;99.90
15483;DHT22;7843;50.330;7.312;2023-12-20T15:22:09;6.30;99.90
15483;DHT22;7843;50.330;7.312;2023-12-20T15:24:39;6.30;99.90
15483;DHT22;7843;50.330;7.312;2023-12-20T15:27:07;6.30;99.90
15483;DHT22;7843;50.330;7.312;2023-12-20T15:29:34;6.30;99.90
15483;DHT22;7843;50.330;7.312;2023-12-20T15:32:01;6.20;99.90
15483;DHT22;7843;50.330;7.312;2023-12-20T15:34:28;6.20;99.90
15483;DHT22;7843;50.330;7.312;2023-12-20T15:36:55;6.10;99.90
15483;DHT22;7843;50.330;7.312;2023-12-20T15:39:21;6.00;99.90
15483;DHT22;7843;50.330;7.312;2023-12-20T15:41:48;5.90;99.90
15483;DHT22;7843;50.330;7.312;2023-12-20T15:44:15;5.90;99.90
15483;DHT22;7843;50.330;7.312;2023-12-20T15:46:42;5.90;99.90
15483;DHT22;7843;50.330;7.312;2023-12-20T15:49:09;5.90;99.90
15483;DHT22;7843;50.330;7.312;2023-12-20T15:51:38;5.90;99.90
15483;DHT22;7843;50.330;7.312;2023-12-20T15:54:05;5.90;99.90
15483;DHT22;7843;50.330;7.312;2023-12-20T15:56:34;5.80;99.90
15483;DHT22;7843;50.330;7.312;2023-12-20T15:59:01;5.80;99.90
15483;DHT22;7843;50.330;7.312;2023-12-20T16:01:29;5.80;99.90
15483;DHT22;7843;50.330;7.312;2023-12-20T16:03:56;5.70;99.90
15483;DHT22;7843;50.330;7.312;2023-12-20T16:06:24;5.80;99.90